Time;durP1;ratioP1;P1;durP2;ratioP2;P2;SDS_P1;SDS_P2;PMS_P1;PMS_P2;Temp;Humidity;BMP_temperature;BMP_pressure;BME280_temperature;BME280_humidity;BME280_pressure;Samples;Min_cycle;Max_cycle;Signal;HPM_P1;HPM_P2
2023/11/21 00:02:22;;;;;;;1.15;0.50;;;13.30;68.40;;;;;;5010876;28;20107;-78
2023/11/21 00:04:48;;;;;;;1.90;0.88;;;13.40;68.70;;;;;;5043297;28;20628;-78
2023/11/21 00:07:15;;;;;;;1.45;0.70;;;13.40;68.70;;;;;;5014946;28;20074;-78
2023/11/21 00:09:44;;;;;;;3.28;0.90;;;13.30;68.60;;;;;;5010843;28;20184;-78
2023/11/21 00:12:11;;;;;;;2.28;1.00;;;13.30;68.60;;;;;;5012420;28;20402;-78
2023/11/21 00:14:38;;;;;;;2.30;0.60;;;13.40;68.80;;;;;;5013679;28;20049;-79
2023/11/21 00:17:05;;;;;;;2.67;0.90;;;13.30;68.70;;;;;;5027136;28;20520;-77
2023/11/21 00:19:33;;;;;;;0.55;0.40;;;13.30;68.80;;;;;;5044904;28;20033;-79
2023/11/21 00:21:59;;;;;;;1.63;0.68;;;13.30;68.80;;;;;;5015048;28;20519;-79
2023/11/21 00:24:26;;;;;;;1.65;0.60;;;13.30;68.90;;;;;;5015576;28;20042;-78
2023/11/21 00:26:52;;;;;;;1.83;0.55;;;13.30;69.00;;;;;;5025224;28;20034;-79
2023/11/21 00:29:22;;;;;;;3.00;0.85;;;13.30;69.00;;;;;;5031700;28;20475;-81
2023/11/21 00:31:49;;;;;;;1.35;0.70;;;13.20;68.90;;;;;;5033786;28;20124;-78
2023/11/21 00:34:15;;;;;;;1.13;0.63;;;13.20;68.90;;;;;;5021798;28;20029;-78
2023/11/21 00:36:41;;;;;;;1.67;0.50;;;13.20;69.00;;;;;;5017240;28;20512;-78
2023/11/21 00:39:08;;;;;;;1.65;0.82;;;13.20;69.10;;;;;;5015253;28;20021;-78
2023/11/21 00:41:36;;;;;;;2.53;0.85;;;13.20;69.20;;;;;;5029134;28;20076;-78
2023/11/21 00:44:02;;;;;;;1.15;0.60;;;13.20;69.20;;;;;;5028175;28;20041;-80
2023/11/21 00:46:29;;;;;;;2.38;0.70;;;13.20;69.20;;;;;;5017387;28;20120;-79
2023/11/21 00:48:56;;;;;;;1.45;0.50;;;13.20;69.30;;;;;;5030534;28;20617;-79
2023/11/21 00:51:22;;;;;;;2.67;0.60;;;13.20;69.40;;;;;;5026361;28;20025;-78
2023/11/21 00:53:49;;;;;;;1.80;0.50;;;13.20;69.40;;;;;;5029183;28;20064;-79
2023/11/21 00:56:16;;;;;;;3.03;0.88;;;13.20;69.40;;;;;;5036538;28;20064;-78
2023/11/21 00:58:49;;;;;;;2.38;0.50;;;13.20;69.40;;;;;;5013262;28;20058;-78
2023/11/21 01:01:16;;;;;;;4.50;0.90;;;13.20;69.50;;;;;;5016220;28;20194;-78
2023/11/21 01:03:43;;;;;;;2.72;0.70;;;13.20;69.50;;;;;;5012994;28;20037;-78
2023/11/21 01:06:09;;;;;;;1.92;0.60;;;13.20;69.60;;;;;;5022468;28;20377;-78
2023/11/21 01:08:35;;;;;;;2.17;0.80;;;13.20;69.60;;;;;;5016537;28;20065;-78
2023/11/21 01:11:03;;;;;;;0.75;0.40;;;13.20;69.60;;;;;;5018589;28;20034;-78
2023/11/21 01:13:29;;;;;;;2.85;0.70;;;13.20;69.70;;;;;;5030447;28;20477;-78
2023/11/21 01:15:56;;;;;;;2.08;0.77;;;13.20;69.70;;;;;;5019460;28;20504;-79
2023/11/21 01:18:25;;;;;;;3.00;0.82;;;13.10;69.60;;;;;;5033038;28;20185;-79
2023/11/21 01:20:53;;;;;;;3.63;0.63;;;13.10;69.70;;;;;;5014676;28;20099;-79
2023/11/21 01:23:20;;;;;;;1.85;0.43;;;13.10;69.70;;;;;;5018795;28;20121;-79
2023/11/21 01:25:46;;;;;;;4.97;0.65;;;13.10;69.80;;;;;;5018375;28;20120;-78
2023/11/21 01:28:12;;;;;;;2.70;0.85;;;13.10;69.80;;;;;;5045811;28;20303;-79
2023/11/21 01:30:39;;;;;;;1.67;0.73;;;13.10;69.90;;;;;;5018920;28;20033;-78
2023/11/21 01:33:05;;;;;;;4.03;1.13;;;13.10;70.00;;;;;;5037284;28;20524;-78
2023/11/21 01:35:31;;;;;;;4.20;2.13;;;13.10;70.00;;;;;;5024978;28;20024;-81
2023/11/21 01:37:57;;;;;;;1.55;0.70;;;13.10;70.10;;;;;;5054745;28;20052;-77
2023/11/21 01:40:24;;;;;;;2.88;0.80;;;13.00;70.00;;;;;;5021847;28;20045;-77
2023/11/21 01:42:50;;;;;;;3.00;1.10;;;13.10;70.20;;;;;;5023183;28;20488;-77
2023/11/21 01:45:16;;;;;;;3.05;1.00;;;13.00;70.10;;;;;;5025094;28;20060;-77
2023/11/21 01:47:44;;;;;;;3.00;0.95;;;13.00;70.10;;;;;;5027290;28;20477;-76
2023/11/21 01:50:15;;;;;;;1.92;0.70;;;13.10;70.40;;;;;;5017214;28;20033;-79
2023/11/21 01:52:44;;;;;;;1.95;0.70;;;13.00;70.30;;;;;;5030036;28;20109;-80
2023/11/21 01:55:12;;;;;;;2.42;0.60;;;13.00;70.30;;;;;;5027456;28;20033;-77
2023/11/21 01:57:38;;;;;;;1.67;0.70;;;13.00;70.30;;;;;;5022140;28;20391;-76
2023/11/21 02:00:16;;;;;;;3.17;1.40;;;13.00;70.30;;;;;;5019630;28;20766;-76
2023/11/21 02:02:44;;;;;;;0.82;0.55;;;13.00;70.40;;;;;;5040152;28;20702;-77
2023/11/21 02:05:14;;;;;;;2.70;1.00;;;13.10;70.60;;;;;;5014927;28;20052;-77
2023/11/21 02:07:42;;;;;;;3.08;0.60;;;13.00;70.50;;;;;;5029340;28;20037;-76
2023/11/21 02:10:09;;;;;;;1.40;0.70;;;13.00;71.00;;;;;;5015384;28;20533;-77
2023/11/21 02:12:38;;;;;;;1.00;0.52;;;13.00;70.50;;;;;;5031791;28;20499;-77
2023/11/21 02:15:09;;;;;;;2.50;0.70;;;13.00;70.60;;;;;;5029366;28;20076;-77
2023/11/21 02:17:36;;;;;;;1.98;0.68;;;13.00;70.60;;;;;;5030320;28;20037;-78
2023/11/21 02:20:02;;;;;;;2.65;0.90;;;13.00;70.70;;;;;;5017331;28;20036;-77
2023/11/21 02:22:32;;;;;;;2.15;0.60;;;13.00;70.60;;;;;;5019735;28;20034;-77
2023/11/21 02:24:58;;;;;;;1.65;0.73;;;13.00;70.70;;;;;;5024048;28;20042;-77
2023/11/21 02:27:24;;;;;;;0.82;0.43;;;13.00;70.70;;;;;;5024816;28;20017;-77
2023/11/21 02:29:50;;;;;;;1.52;0.73;;;13.00;70.80;;;;;;5026425;28;20037;-79
2023/11/21 02:32:22;;;;;;;2.40;0.50;;;13.00;70.80;;;;;;5025031;28;20029;-79
2023/11/21 02:34:49;;;;;;;0.90;0.50;;;13.00;70.80;;;;;;5014801;28;20025;-79
2023/11/21 02:37:16;;;;;;;0.98;0.57;;;13.00;70.90;;;;;;5031286;28;20044;-79
2023/11/21 02:39:42;;;;;;;1.23;0.50;;;13.00;71.00;;;;;;5035728;28;20029;-80
2023/11/21 02:42:08;;;;;;;1.15;0.50;;;13.00;71.00;;;;;;5020848;28;20525;-79
2023/11/21 02:44:34;;;;;;;2.85;0.50;;;13.00;71.00;;;;;;5025264;28;20037;-80
2023/11/21 02:47:01;;;;;;;1.70;0.50;;;13.00;71.00;;;;;;5023934;28;20037;-78
2023/11/21 02:49:29;;;;;;;1.13;0.50;;;13.00;71.10;;;;;;5020916;28;20485;-77
2023/11/21 02:51:55;;;;;;;1.55;0.50;;;13.00;71.10;;;;;;5032807;28;20030;-78
2023/11/21 02:54:24;;;;;;;0.43;0.40;;;13.00;71.20;;;;;;5029808;28;20496;-79
2023/11/21 02:56:51;;;;;;;0.85;0.63;;;13.00;71.20;;;;;;5013167;28;20028;-79
2023/11/21 02:59:19;;;;;;;1.30;0.80;;;13.00;71.20;;;;;;5034458;28;20029;-79
2023/11/21 03:01:46;;;;;;;1.10;0.40;;;13.00;71.20;;;;;;5026237;28;20033;-80
2023/11/21 03:04:17;;;;;;;1.13;0.50;;;13.00;71.30;;;;;;5020830;28;20398;-78
2023/11/21 03:06:45;;;;;;;0.88;0.50;;;13.00;71.30;;;;;;5033844;28;20021;-79
2023/11/21 03:09:14;;;;;;;1.50;0.55;;;13.00;71.30;;;;;;5025820;28;20120;-78
2023/11/21 03:11:40;;;;;;;0.75;0.50;;;12.90;71.20;;;;;;5009934;28;20030;-79
2023/11/21 03:14:06;;;;;;;1.77;0.65;;;13.00;71.40;;;;;;5059552;28;20047;-78
2023/11/21 03:16:33;;;;;;;0.40;0.38;;;12.90;71.30;;;;;;5029918;28;20417;-79
2023/11/21 03:19:00;;;;;;;1.15;0.60;;;12.90;71.30;;;;;;5029244;28;20080;-78
2023/11/21 03:21:29;;;;;;;3.05;0.80;;;12.90;71.40;;;;;;5030201;28;20083;-78
2023/11/21 03:23:55;;;;;;;1.05;0.65;;;12.90;71.40;;;;;;5023761;28;20045;-79
2023/11/21 03:26:21;;;;;;;1.15;0.45;;;12.90;71.50;;;;;;5027941;28;20465;-80
2023/11/21 03:28:47;;;;;;;0.88;0.65;;;12.90;71.50;;;;;;5026001;28;20501;-79
2023/11/21 03:31:16;;;;;;;0.82;0.65;;;12.90;71.50;;;;;;5024796;28;20042;-79
2023/11/21 03:33:42;;;;;;;1.90;1.63;;;12.90;71.60;;;;;;5031867;28;20030;-78
2023/11/21 03:36:09;;;;;;;0.98;0.88;;;12.90;71.60;;;;;;5032920;28;20022;-78
2023/11/21 03:38:36;;;;;;;0.88;0.80;;;12.90;71.60;;;;;;5036546;28;20091;-80
2023/11/21 03:41:03;;;;;;;2.17;1.08;;;12.90;71.60;;;;;;5032547;28;20075;-78
2023/11/21 03:43:29;;;;;;;1.48;1.10;;;12.90;71.70;;;;;;5051436;28;20037;-78
2023/11/21 03:45:56;;;;;;;1.40;1.30;;;12.90;71.70;;;;;;5034560;28;20467;-78
2023/11/21 03:48:22;;;;;;;1.27;1.17;;;12.90;71.70;;;;;;5023135;28;20092;-78
2023/11/21 03:50:49;;;;;;;1.30;1.20;;;12.90;71.70;;;;;;5047052;28;20179;-76
2023/11/21 03:53:16;;;;;;;2.28;1.55;;;12.90;71.70;;;;;;5033263;28;20431;-78
2023/11/21 03:55:43;;;;;;;1.50;1.40;;;12.90;71.80;;;;;;5027016;28;20059;-79
2023/11/21 03:58:11;;;;;;;1.38;1.27;;;12.90;71.80;;;;;;5038040;28;20029;-78
2023/11/21 04:00:37;;;;;;;3.78;1.45;;;12.90;71.80;;;;;;5024533;28;20033;-78
2023/11/21 04:03:04;;;;;;;1.70;1.58;;;12.90;71.80;;;;;;5028959;28;20041;-79
2023/11/21 04:05:31;;;;;;;1.70;1.60;;;12.90;71.90;;;;;;5029290;28;20041;-79
2023/11/21 04:07:58;;;;;;;1.73;1.55;;;12.90;71.90;;;;;;5032747;28;20033;-78
2023/11/21 04:10:24;;;;;;;1.73;1.50;;;12.90;71.80;;;;;;5022626;28;20038;-78
2023/11/21 04:12:50;;;;;;;1.60;1.50;;;12.90;71.90;;;;;;5026917;28;20384;-79
2023/11/21 04:15:20;;;;;;;1.67;1.50;;;12.90;71.90;;;;;;5032158;28;20063;-78
2023/11/21 04:17:46;;;;;;;1.67;1.58;;;12.90;71.80;;;;;;5022945;28;20052;-79
2023/11/21 04:20:13;;;;;;;1.98;1.60;;;12.90;71.80;;;;;;5022103;28;20044;-78
2023/11/21 04:22:40;;;;;;;2.15;1.65;;;12.90;71.80;;;;;;5024162;28;20095;-78
2023/11/21 04:25:12;;;;;;;1.40;1.30;;;12.90;71.80;;;;;;5033274;28;20103;-79
2023/11/21 04:27:40;;;;;;;1.60;1.48;;;12.90;71.80;;;;;;5029404;28;20521;-78
2023/11/21 04:30:06;;;;;;;1.67;1.50;;;12.90;71.80;;;;;;5022415;28;20083;-78
2023/11/21 04:32:33;;;;;;;1.40;1.30;;;12.90;71.70;;;;;;5023236;28;20508;-79
2023/11/21 04:35:00;;;;;;;1.40;1.30;;;12.90;71.70;;;;;;5022639;28;20144;-79
2023/11/21 04:37:26;;;;;;;1.13;1.10;;;12.90;71.70;;;;;;5029216;28;20033;-79
2023/11/21 04:39:52;;;;;;;1.30;1.20;;;12.90;71.60;;;;;;5028450;28;20030;-79
2023/11/21 04:42:18;;;;;;;1.10;1.10;;;12.90;71.60;;;;;;5022276;28;20094;-78
2023/11/21 04:44:45;;;;;;;1.20;1.10;;;12.90;71.50;;;;;;5024577;28;20038;-79
2023/11/21 04:47:12;;;;;;;1.05;1.05;;;12.90;71.50;;;;;;5024487;28;20397;-79
2023/11/21 04:49:42;;;;;;;1.05;1.00;;;12.80;71.20;;;;;;5029147;28;20358;-78
2023/11/21 04:52:09;;;;;;;0.90;0.90;;;12.90;71.40;;;;;;5024461;28;20044;-78
2023/11/21 04:54:36;;;;;;;1.02;0.93;;;12.80;71.10;;;;;;5032109;28;20041;-78
2023/11/21 04:57:04;;;;;;;1.05;0.90;;;12.80;71.10;;;;;;5031229;28;20021;-79
2023/11/21 04:59:31;;;;;;;0.90;0.90;;;12.80;71.00;;;;;;5020849;28;20478;-79
2023/11/21 05:01:57;;;;;;;0.73;0.73;;;12.80;71.00;;;;;;5033368;28;20056;-79
2023/11/21 05:04:24;;;;;;;0.70;0.70;;;12.80;70.90;;;;;;5014249;28;20034;-79
2023/11/21 05:06:54;;;;;;;0.68;0.68;;;12.80;70.90;;;;;;5023154;28;20108;-78
2023/11/21 05:09:22;;;;;;;1.00;0.90;;;12.80;70.80;;;;;;5058812;28;20503;-78
2023/11/21 05:11:49;;;;;;;1.85;0.70;;;12.80;70.80;;;;;;5029590;28;20029;-78
2023/11/21 05:14:18;;;;;;;0.88;0.77;;;12.70;70.60;;;;;;5033672;28;20034;-77
2023/11/21 05:16:45;;;;;;;0.82;0.82;;;12.70;70.60;;;;;;5031947;28;20389;-77
2023/11/21 05:19:13;;;;;;;0.82;0.60;;;12.70;70.50;;;;;;5029533;28;20453;-78
2023/11/21 05:21:42;;;;;;;0.50;0.50;;;12.70;70.50;;;;;;5037035;28;20048;-78
2023/11/21 05:24:09;;;;;;;1.27;0.60;;;12.70;70.50;;;;;;5032658;28;20040;-78
2023/11/21 05:26:39;;;;;;;0.60;0.60;;;12.70;70.40;;;;;;5025488;28;20036;-79
2023/11/21 05:29:06;;;;;;;0.80;0.75;;;12.70;70.40;;;;;;5008916;28;20037;-78
2023/11/21 05:31:33;;;;;;;0.65;0.65;;;12.70;70.40;;;;;;5008738;28;20032;-78
2023/11/21 05:33:59;;;;;;;0.77;0.60;;;12.70;70.40;;;;;;5027059;28;20362;-78
2023/11/21 05:36:26;;;;;;;1.38;0.85;;;12.70;70.30;;;;;;5031764;28;20120;-77
2023/11/21 05:38:53;;;;;;;0.52;0.50;;;12.70;70.30;;;;;;5031253;28;20076;-77
2023/11/21 05:41:19;;;;;;;0.75;0.60;;;12.70;70.30;;;;;;5020486;28;20634;-77
2023/11/21 05:43:46;;;;;;;1.20;0.43;;;12.70;70.20;;;;;;5031151;28;20562;-77
2023/11/21 05:46:13;;;;;;;0.50;0.50;;;12.70;70.10;;;;;;5059761;28;20042;-77
2023/11/21 05:48:39;;;;;;;0.55;0.50;;;12.70;70.10;;;;;;5028636;28;20033;-77
2023/11/21 05:51:06;;;;;;;0.50;0.47;;;12.60;69.90;;;;;;5020943;28;20052;-76
2023/11/21 05:53:33;;;;;;;0.75;0.60;;;12.70;70.10;;;;;;5037934;28;20074;-76
2023/11/21 05:55:59;;;;;;;0.85;0.52;;;12.70;70.00;;;;;;5024437;28;20037;-76
2023/11/21 05:58:25;;;;;;;0.38;0.38;;;12.60;69.80;;;;;;5030241;28;20040;-76
2023/11/21 06:00:51;;;;;;;0.43;0.30;;;12.60;69.70;;;;;;5026102;28;20492;-76
2023/11/21 06:03:17;;;;;;;0.35;0.35;;;12.70;69.80;;;;;;5021776;28;22158;-77
2023/11/21 06:05:43;;;;;;;0.85;0.50;;;12.70;69.80;;;;;;5026384;28;20033;-77
2023/11/21 06:08:10;;;;;;;0.88;0.60;;;12.60;69.50;;;;;;5032492;28;20033;-78
2023/11/21 06:10:36;;;;;;;0.70;0.38;;;12.60;69.40;;;;;;5031983;28;20036;-77
2023/11/21 06:13:03;;;;;;;0.63;0.43;;;12.60;69.40;;;;;;5055430;28;20488;-77
2023/11/21 06:15:30;;;;;;;0.80;0.50;;;12.60;69.30;;;;;;5003933;28;20047;-77
2023/11/21 06:17:56;;;;;;;0.95;0.40;;;12.60;69.20;;;;;;5023652;28;20120;-77
2023/11/21 06:20:22;;;;;;;0.43;0.43;;;12.60;69.20;;;;;;5020079;28;20522;-77
2023/11/21 06:22:50;;;;;;;0.63;0.40;;;12.50;68.90;;;;;;5019207;28;20030;-77
2023/11/21 06:25:17;;;;;;;0.57;0.38;;;12.50;68.80;;;;;;5018543;28;20307;-77
2023/11/21 06:27:46;;;;;;;0.88;0.40;;;12.50;68.80;;;;;;5015152;28;20025;-77
2023/11/21 06:30:13;;;;;;;0.75;0.35;;;12.50;69.20;;;;;;5048486;28;20192;-78
2023/11/21 06:32:40;;;;;;;0.93;0.30;;;12.50;68.60;;;;;;5015754;28;20121;-78
2023/11/21 06:35:07;;;;;;;0.68;0.40;;;12.50;68.60;;;;;;5017657;28;20040;-77
2023/11/21 06:37:33;;;;;;;1.13;0.50;;;12.50;68.50;;;;;;5019993;28;20583;-78
2023/11/21 06:40:00;;;;;;;0.68;0.40;;;12.50;68.40;;;;;;5018483;28;20099;-77
2023/11/21 06:42:27;;;;;;;15.45;3.67;;;12.50;68.50;;;;;;5011746;28;20112;-77
2023/11/21 06:44:56;;;;;;;6.90;1.65;;;12.50;68.60;;;;;;5019198;28;20136;-77
2023/11/21 06:47:26;;;;;;;10.93;2.08;;;12.50;68.60;;;;;;5020224;28;20029;-77
2023/11/21 06:49:53;;;;;;;6.00;1.38;;;12.50;68.60;;;;;;5019525;28;20124;-77
2023/11/21 06:52:20;;;;;;;4.70;1.05;;;12.50;68.50;;;;;;5025459;28;20033;-78
2023/11/21 06:54:47;;;;;;;4.50;1.10;;;12.50;68.40;;;;;;5033128;28;20029;-77
2023/11/21 06:57:13;;;;;;;4.22;1.10;;;12.40;68.20;;;;;;5021143;28;20032;-77
2023/11/21 06:59:39;;;;;;;6.65;1.52;;;12.40;68.20;;;;;;5013783;28;20029;-78
2023/11/21 07:02:09;;;;;;;2.95;1.25;;;12.40;68.10;;;;;;5025121;28;20083;-77
2023/11/21 07:04:38;;;;;;;1.85;0.57;;;12.40;68.10;;;;;;5014206;28;20099;-78
2023/11/21 07:07:06;;;;;;;5.53;0.90;;;12.40;68.10;;;;;;5026777;28;20072;-77
2023/11/21 07:09:33;;;;;;;9.23;1.38;;;12.40;68.00;;;;;;5014148;28;20022;-77
2023/11/21 07:11:59;;;;;;;2.95;0.77;;;12.40;68.00;;;;;;5013747;28;20729;-78
2023/11/21 07:14:25;;;;;;;5.03;1.88;;;12.40;68.00;;;;;;5014035;28;20353;-78
2023/11/21 07:16:52;;;;;;;1.52;0.70;;;12.40;68.00;;;;;;5012975;28;20045;-78
2023/11/21 07:19:22;;;;;;;1.02;0.70;;;12.30;67.70;;;;;;5016302;28;20032;-78
2023/11/21 07:21:50;;;;;;;3.47;1.00;;;12.40;67.90;;;;;;5021389;28;20029;-78
2023/11/21 07:24:17;;;;;;;2.05;0.50;;;12.40;67.80;;;;;;5021752;28;20041;-78
2023/11/21 07:26:43;;;;;;;1.17;0.52;;;12.40;68.30;;;;;;5015153;28;20030;-80
2023/11/21 07:29:09;;;;;;;1.77;0.50;;;12.30;67.50;;;;;;5019559;28;20037;-80
2023/11/21 07:31:35;;;;;;;1.20;0.50;;;12.30;67.50;;;;;;5010490;28;20055;-79
2023/11/21 07:34:01;;;;;;;0.30;0.30;;;12.30;67.50;;;;;;5014709;28;20492;-81
2023/11/21 07:36:27;;;;;;;2.08;0.40;;;12.40;67.60;;;;;;5022603;28;20045;-79
2023/11/21 07:38:53;;;;;;;1.25;1.15;;;12.40;67.60;;;;;;5015157;28;20514;-79
2023/11/21 07:41:20;;;;;;;1.05;0.30;;;12.30;67.30;;;;;;5016687;28;20104;-78
2023/11/21 07:43:47;;;;;;;0.55;0.35;;;12.30;67.30;;;;;;5022528;28;20104;-77
2023/11/21 07:46:13;;;;;;;1.27;0.40;;;12.30;67.20;;;;;;5025489;28;20838;-77
2023/11/21 07:48:41;;;;;;;2.35;0.32;;;12.30;67.20;;;;;;5018714;28;20385;-77
2023/11/21 07:51:08;;;;;;;1.00;0.30;;;12.30;67.20;;;;;;5050130;28;20374;-77
2023/11/21 07:53:35;;;;;;;2.28;0.50;;;12.30;67.20;;;;;;5020508;28;20400;-77
2023/11/21 07:56:06;;;;;;;0.30;0.30;;;12.30;67.10;;;;;;5017846;28;20040;-78
2023/11/21 07:58:35;;;;;;;1.77;0.38;;;12.30;67.10;;;;;;5018777;28;20025;-78
2023/11/21 08:01:02;;;;;;;1.40;0.60;;;12.30;67.10;;;;;;5026239;28;20120;-80
2023/11/21 08:03:31;;;;;;;0.80;0.40;;;12.30;67.10;;;;;;5011461;28;20044;-79
2023/11/21 08:05:58;;;;;;;0.80;0.38;;;12.30;67.00;;;;;;5015010;28;20025;-79
2023/11/21 08:08:25;;;;;;;0.40;0.22;;;12.30;67.00;;;;;;5017550;28;20154;-78
2023/11/21 08:10:57;;;;;;;0.50;0.40;;;12.30;66.90;;;;;;5022167;28;20033;-78
2023/11/21 08:13:27;;;;;;;0.95;0.40;;;12.30;66.90;;;;;;5050736;28;20028;-78
2023/11/21 08:15:54;;;;;;;0.70;0.52;;;12.40;67.00;;;;;;5019489;28;20041;-79
2023/11/21 08:18:21;;;;;;;0.68;0.30;;;12.40;67.00;;;;;;5013234;28;20053;-79
2023/11/21 08:20:48;;;;;;;1.55;0.38;;;12.40;66.90;;;;;;5017260;28;20033;-79
2023/11/21 08:23:16;;;;;;;0.40;0.20;;;12.30;66.70;;;;;;5020251;28;20048;-79
2023/11/21 08:25:45;;;;;;;0.32;0.20;;;12.40;66.80;;;;;;5016439;28;20389;-79
2023/11/21 08:28:14;;;;;;;0.17;0.17;;;12.40;66.80;;;;;;5016416;28;20059;-79
2023/11/21 08:30:41;;;;;;;0.55;0.35;;;12.40;66.70;;;;;;5017311;28;20103;-79
2023/11/21 08:33:08;;;;;;;0.60;0.30;;;12.40;66.70;;;;;;5002037;28;20022;-79
2023/11/21 08:35:34;;;;;;;0.30;0.30;;;12.40;66.70;;;;;;5031383;28;20184;-79
2023/11/21 08:38:00;;;;;;;0.68;0.30;;;12.40;66.60;;;;;;5036166;28;20041;-78
2023/11/21 08:40:28;;;;;;;0.52;0.30;;;12.40;66.60;;;;;;5015431;28;20049;-76
2023/11/21 08:43:00;;;;;;;1.17;0.20;;;12.40;66.60;;;;;;5030320;28;20098;-79
2023/11/21 08:45:27;;;;;;;0.30;0.20;;;12.50;66.60;;;;;;5015331;28;20554;-78
2023/11/21 08:47:53;;;;;;;1.27;0.30;;;12.50;66.60;;;;;;5018946;28;20176;-78
2023/11/21 08:50:20;;;;;;;0.47;0.20;;;12.50;66.60;;;;;;5017534;28;20545;-78
2023/11/21 08:52:47;;;;;;;0.20;0.20;;;12.50;66.50;;;;;;5021953;28;20059;-78
2023/11/21 08:55:14;;;;;;;2.38;0.30;;;12.50;66.40;;;;;;5020901;28;20247;-79
2023/11/21 08:57:42;;;;;;;0.85;0.30;;;12.60;66.60;;;;;;5031278;28;20793;-78
2023/11/21 09:00:16;;;;;;;0.40;0.20;;;12.60;66.60;;;;;;5015186;28;20068;-78
2023/11/21 09:02:44;;;;;;;0.57;0.38;;;12.60;66.50;;;;;;5028028;28;20041;-78
2023/11/21 09:05:13;;;;;;;0.93;0.90;;;12.60;66.40;;;;;;5019119;28;20135;-78
2023/11/21 09:07:41;;;;;;;0.75;0.30;;;12.70;66.50;;;;;;5028096;28;20845;-78
2023/11/21 09:10:09;;;;;;;0.45;0.20;;;12.70;66.50;;;;;;5020517;28;20037;-78
2023/11/21 09:12:40;;;;;;;0.25;0.20;;;12.70;66.40;;;;;;5019679;28;20025;-79
2023/11/21 09:15:09;;;;;;;0.52;0.30;;;12.70;66.30;;;;;;5022995;28;20044;-78
2023/11/21 09:17:39;;;;;;;0.40;0.20;;;12.80;66.50;;;;;;5026858;28;20416;-78
2023/11/21 09:20:06;;;;;;;1.13;0.52;;;12.80;66.40;;;;;;5022454;28;20029;-78
2023/11/21 09:22:32;;;;;;;0.65;0.30;;;12.80;66.20;;;;;;5013505;28;20045;-78
2023/11/21 09:24:59;;;;;;;0.50;0.25;;;12.80;66.20;;;;;;5022088;28;20046;-78
2023/11/21 09:27:26;;;;;;;0.90;0.30;;;12.90;66.40;;;;;;5003108;28;20021;-78
2023/11/21 09:29:53;;;;;;;0.55;0.30;;;12.90;66.30;;;;;;5031541;28;20108;-78
2023/11/21 09:32:21;;;;;;;1.27;0.35;;;12.90;66.20;;;;;;5058065;28;20039;-78
2023/11/21 09:34:50;;;;;;;1.70;0.30;;;13.00;66.30;;;;;;5023984;28;20594;-81
2023/11/21 09:37:16;;;;;;;0.82;0.22;;;13.00;66.20;;;;;;5027211;28;20083;-79
2023/11/21 09:39:43;;;;;;;0.73;0.20;;;13.00;66.30;;;;;;5019915;28;20132;-78
2023/11/21 09:42:22;;;;;;;0.45;0.30;;;13.10;66.90;;;;;;5021888;28;20518;-80
2023/11/21 09:45:04;;;;;;;3.55;0.70;;;13.20;67.60;;;;;;5019537;28;20222;-79
2023/11/21 09:47:35;;;;;;;0.50;0.20;;;13.20;67.80;;;;;;5016381;28;20032;-80
2023/11/21 09:50:02;;;;;;;1.65;0.30;;;13.30;68.10;;;;;;5017697;28;20095;-79
2023/11/21 09:52:29;;;;;;;0.50;0.20;;;13.40;68.50;;;;;;5031036;28;20124;-79
2023/11/21 09:54:58;;;;;;;0.60;0.20;;;13.50;68.80;;;;;;5018379;28;20037;-79
2023/11/21 09:57:25;;;;;;;0.25;0.20;;;13.60;69.10;;;;;;5021675;28;20136;-79
2023/11/21 09:59:58;;;;;;;0.63;0.20;;;13.70;69.40;;;;;;5006880;28;20122;-79
2023/11/21 10:02:29;;;;;;;0.20;0.20;;;13.80;69.60;;;;;;5018245;28;20643;-79
2023/11/21 10:04:56;;;;;;;0.50;0.20;;;13.80;69.60;;;;;;5011392;28;20038;-80
2023/11/21 10:07:23;;;;;;;2.28;0.45;;;13.90;69.80;;;;;;5021887;28;20036;-80
2023/11/21 10:09:52;;;;;;;0.47;0.30;;;14.00;70.00;;;;;;5019680;28;20636;-80
2023/11/21 10:12:22;;;;;;;0.38;0.20;;;14.10;70.20;;;;;;5022141;28;20029;-79
2023/11/21 10:14:52;;;;;;;0.35;0.20;;;14.20;70.40;;;;;;5056556;28;20041;-79
2023/11/21 10:17:30;;;;;;;0.88;0.28;;;14.20;70.40;;;;;;5018398;28;20033;-78
2023/11/21 10:19:57;;;;;;;0.45;0.30;;;14.30;70.50;;;;;;5018971;28;20509;-79
2023/11/21 10:22:24;;;;;;;0.88;0.30;;;14.40;70.60;;;;;;5035233;28;20033;-78
2023/11/21 10:24:51;;;;;;;0.40;0.20;;;14.40;70.50;;;;;;5025333;28;20038;-77
2023/11/21 10:27:20;;;;;;;1.20;0.30;;;14.40;70.50;;;;;;5016086;28;20033;-78
2023/11/21 10:29:47;;;;;;;2.05;0.25;;;14.60;70.90;;;;;;5017598;28;20545;-77
2023/11/21 10:32:13;;;;;;;0.65;0.20;;;14.60;70.90;;;;;;5018445;28;20086;-77
2023/11/21 10:34:41;;;;;;;1.08;0.28;;;14.70;71.00;;;;;;5026727;28;20055;-77
2023/11/21 10:37:13;;;;;;;0.88;0.30;;;14.80;71.00;;;;;;5050861;28;20037;-78
2023/11/21 10:39:39;;;;;;;0.43;0.40;;;14.90;71.60;;;;;;5030523;28;20247;-79
2023/11/21 10:42:08;;;;;;;1.27;0.30;;;15.00;71.00;;;;;;5019087;28;20095;-79
2023/11/21 10:44:35;;;;;;;0.30;0.25;;;15.10;71.60;;;;;;5021023;28;20045;-77
2023/11/21 10:47:02;;;;;;;0.70;0.30;;;15.20;71.10;;;;;;5018789;28;20117;-78
2023/11/21 10:49:28;;;;;;;0.47;0.30;;;15.30;71.00;;;;;;5020089;28;20318;-78
2023/11/21 10:51:55;;;;;;;0.65;0.22;;;15.30;70.70;;;;;;5018445;28;20053;-77
2023/11/21 10:54:23;;;;;;;0.90;0.50;;;15.40;70.60;;;;;;5022577;28;20648;-77
2023/11/21 10:57:00;;;;;;;1.05;0.32;;;15.40;70.30;;;;;;5018771;28;20163;-78
2023/11/21 10:59:30;;;;;;;0.90;0.30;;;15.50;70.20;;;;;;5023334;28;20267;-78
2023/11/21 11:01:58;;;;;;;0.55;0.43;;;15.60;70.10;;;;;;5009638;28;20037;-78
2023/11/21 11:04:27;;;;;;;0.38;0.30;;;15.60;70.00;;;;;;5011232;28;20075;-79
2023/11/21 11:07:03;;;;;;;1.77;0.45;;;15.70;69.90;;;;;;5018933;28;20030;-80
2023/11/21 11:09:35;;;;;;;1.50;0.30;;;15.70;69.60;;;;;;5021451;28;20046;-80
2023/11/21 11:12:04;;;;;;;0.30;0.20;;;15.80;69.70;;;;;;5015605;28;20059;-79
2023/11/21 11:14:32;;;;;;;0.77;0.30;;;15.80;69.50;;;;;;5030063;28;20183;-79
2023/11/21 11:17:00;;;;;;;1.27;0.30;;;15.80;69.30;;;;;;5046143;28;20041;-79
2023/11/21 11:19:27;;;;;;;0.40;0.30;;;15.80;69.10;;;;;;5018223;28;20080;-79
2023/11/21 11:21:59;;;;;;;1.73;0.43;;;15.80;68.90;;;;;;5004008;28;20029;-79
2023/11/21 11:24:51;;;;;;;0.47;0.20;;;15.90;69.00;;;;;;5017020;28;20122;-79
2023/11/21 11:27:29;;;;;;;0.25;0.20;;;15.90;68.80;;;;;;5011683;28;20048;-76
2023/11/21 11:30:20;;;;;;;2.17;0.57;;;15.90;68.60;;;;;;5023561;28;20620;-78
2023/11/21 11:33:14;;;;;;;1.45;0.40;;;16.00;68.60;;;;;;5019169;28;20028;-77
2023/11/21 11:36:00;;;;;;;1.27;0.52;;;16.00;68.40;;;;;;5048442;28;20029;-78
2023/11/21 11:38:35;;;;;;;1.90;0.30;;;16.10;68.30;;;;;;5016966;28;20033;-77
2023/11/21 11:41:06;;;;;;;1.40;0.50;;;16.20;68.20;;;;;;5017379;28;20061;-77
2023/11/21 11:43:37;;;;;;;0.40;0.30;;;16.30;68.20;;;;;;5046901;28;20037;-77
2023/11/21 11:46:03;;;;;;;0.63;0.38;;;16.30;68.50;;;;;;5014078;28;20041;-76
2023/11/21 11:48:29;;;;;;;0.30;0.30;;;16.40;67.80;;;;;;5013861;28;20481;-78
2023/11/21 11:51:08;;;;;;;1.40;0.30;;;16.40;67.60;;;;;;5010799;28;20042;-77
2023/11/21 11:53:39;;;;;;;1.02;0.40;;;16.50;67.50;;;;;;5018099;28;20033;-78
2023/11/21 11:56:27;;;;;;;0.65;0.25;;;16.60;67.40;;;;;;5016984;28;20037;-78
2023/11/21 11:58:56;;;;;;;1.83;0.40;;;16.60;67.00;;;;;;5014371;28;20576;-78
2023/11/21 12:01:24;;;;;;;0.68;0.32;;;16.60;66.90;;;;;;5019445;28;20037;-77
2023/11/21 12:04:46;;;;;;;0.68;0.32;;;16.70;66.90;;;;;;5013693;28;20045;-77
2023/11/21 12:07:05;;;;;;;1.20;0.40;;;16.70;66.50;;;;;;5008272;28;20042;-77
2023/11/21 12:09:33;;;;;;;0.90;0.55;;;16.70;66.50;;;;;;5039331;28;20049;-77
2023/11/21 12:12:00;;;;;;;1.30;0.40;;;16.70;66.30;;;;;;5017346;28;20136;-78
2023/11/21 12:14:28;;;;;;;2.45;0.40;;;16.80;66.30;;;;;;5019921;28;20029;-78
2023/11/21 12:16:58;;;;;;;0.85;0.50;;;16.80;66.10;;;;;;5016775;28;20192;-78
2023/11/21 12:19:26;;;;;;;1.90;0.90;;;16.80;66.00;;;;;;5022961;28;20029;-77
2023/11/21 12:21:53;;;;;;;1.05;0.60;;;16.90;66.10;;;;;;5033635;28;20028;-78
2023/11/21 12:24:19;;;;;;;0.98;0.82;;;17.00;66.10;;;;;;5003651;28;20045;-78
2023/11/21 12:26:46;;;;;;;1.58;0.50;;;17.00;65.90;;;;;;5021883;28;20052;-78
2023/11/21 12:29:16;;;;;;;0.68;0.30;;;17.10;66.00;;;;;;5039411;28;20444;-78
2023/11/21 12:31:43;;;;;;;0.82;0.82;;;17.10;65.90;;;;;;5026086;28;20108;-77
2023/11/21 12:34:13;;;;;;;0.47;0.38;;;17.10;65.70;;;;;;5028388;28;20120;-77
2023/11/21 12:36:39;;;;;;;1.45;0.55;;;17.20;65.80;;;;;;5027635;28;20033;-78
2023/11/21 12:39:08;;;;;;;0.93;0.50;;;17.20;65.70;;;;;;5031463;28;20034;-78
2023/11/21 12:41:35;;;;;;;2.15;0.55;;;17.20;65.50;;;;;;5021562;28;20041;-77
2023/11/21 12:44:01;;;;;;;1.00;0.50;;;17.30;65.60;;;;;;5024779;28;20041;-77
2023/11/21 12:46:32;;;;;;;1.00;0.50;;;17.30;65.50;;;;;;5020222;28;20036;-77
2023/11/21 12:49:00;;;;;;;0.73;0.40;;;17.30;65.50;;;;;;5020150;28;20354;-77
2023/11/21 12:51:26;;;;;;;1.00;0.43;;;17.30;65.40;;;;;;5024920;28;20100;-77
2023/11/21 12:53:53;;;;;;;1.02;0.85;;;17.30;65.30;;;;;;5021774;28;20334;-77